createdAt,value
2018-02-14T00:02:00.536Z,68.90
2018-02-14T00:04:28.666Z,68.80
2018-02-14T00:06:56.849Z,69.00
2018-02-14T00:09:24.930Z,68.90
2018-02-14T00:11:53.079Z,69.00
2018-02-14T00:14:21.218Z,69.00
2018-02-14T00:16:49.359Z,68.80
2018-02-14T00:19:17.544Z,68.80
2018-02-14T00:21:46.411Z,68.40
2018-02-14T00:24:14.608Z,68.40
2018-02-14T00:26:42.720Z,68.60
2018-02-14T00:29:10.847Z,68.70
2018-02-14T00:31:38.975Z,69.30
2018-02-14T00:34:07.140Z,68.90
2018-02-14T00:36:35.273Z,68.70
2018-02-14T00:39:03.414Z,68.60
2018-02-14T00:41:32.328Z,68.90
2018-02-14T00:44:00.454Z,69.00
2018-02-14T00:46:28.593Z,69.20
2018-02-14T00:48:56.746Z,69.10
2018-02-14T00:51:24.879Z,69.40
2018-02-14T00:53:53.809Z,69.30
2018-02-14T00:56:22.804Z,69.20
2018-02-14T00:58:50.927Z,69.20
2018-02-14T01:01:19.057Z,69.10
2018-02-14T01:03:47.207Z,69.10
2018-02-14T01:06:15.327Z,69.30
2018-02-14T01:08:43.453Z,69.30
2018-02-14T01:11:11.635Z,69.20
2018-02-14T01:13:39.746Z,68.90
2018-02-14T01:16:07.886Z,69.40
2018-02-14T01:18:41.688Z,69.20
2018-02-14T01:21:09.822Z,69.40
2018-02-14T01:23:38.749Z,69.30
2018-02-14T01:26:06.856Z,69.30
2018-02-14T01:28:35.097Z,69.20
2018-02-14T01:31:03.266Z,69.10
2018-02-14T01:33:32.155Z,68.80
2018-02-14T01:36:00.286Z,68.80
2018-02-14T01:38:28.422Z,69.00
2018-02-14T01:40:56.563Z,69.30
2018-02-14T01:43:24.747Z,69.70
2018-02-14T01:45:52.859Z,69.70
2018-02-14T01:48:20.991Z,69.80
2018-02-14T01:50:49.138Z,69.70
2018-02-14T01:53:17.337Z,69.60
2018-02-14T01:55:46.218Z,69.70
2018-02-14T01:58:14.351Z,69.70
2018-02-14T02:00:42.498Z,69.60
2018-02-14T02:03:10.620Z,69.40
2018-02-14T02:05:38.788Z,69.20
2018-02-14T02:08:06.899Z,69.10
2018-02-14T02:10:35.060Z,69.10
2018-02-14T02:13:03.183Z,69.20
2018-02-14T02:15:31.306Z,69.30
2018-02-14T02:17:59.441Z,69.20
2018-02-14T02:20:28.339Z,69.00
2018-02-14T02:22:56.487Z,69.00
2018-02-14T02:25:24.628Z,69.10
2018-02-14T02:27:52.801Z,69.10
2018-02-14T02:30:20.975Z,69.00
2018-02-14T02:32:49.129Z,69.10
2018-02-14T02:35:17.246Z,69.40
2018-02-14T02:37:45.379Z,69.60
2018-02-14T02:40:25.427Z,69.40
2018-02-14T02:42:53.539Z,69.30
2018-02-14T02:45:23.181Z,69.60
2018-02-14T02:47:52.096Z,69.40
2018-02-14T02:50:20.243Z,69.40
2018-02-14T02:52:48.366Z,69.50
2018-02-14T02:55:16.502Z,69.30
2018-02-14T02:57:44.644Z,69.20
2018-02-14T03:00:13.559Z,69.60
2018-02-14T03:02:41.689Z,69.50
2018-02-14T03:05:09.812Z,69.40
2018-02-14T03:07:38.068Z,69.20
2018-02-14T03:10:06.969Z,69.60
2018-02-14T03:12:35.855Z,69.20
2018-02-14T03:15:04.763Z,69.40
2018-02-14T03:17:32.876Z,69.50
2018-02-14T03:20:01.023Z,69.20
2018-02-14T03:22:29.144Z,69.00
2018-02-14T03:24:58.067Z,68.90
2018-02-14T03:27:26.942Z,68.70
2018-02-14T03:29:55.090Z,68.70
2018-02-14T03:32:23.302Z,68.70
2018-02-14T03:34:52.182Z,68.90
2018-02-14T03:37:20.367Z,68.90
2018-02-14T03:39:48.463Z,69.00
2018-02-14T03:42:16.608Z,69.00
2018-02-14T03:44:44.744Z,68.90
2018-02-14T03:47:13.641Z,69.40
2018-02-14T03:49:42.531Z,68.60
2018-02-14T03:52:11.459Z,68.50
2018-02-14T03:54:39.574Z,68.50
2018-02-14T03:57:07.719Z,68.20
2018-02-14T03:59:35.858Z,68.50
2018-02-14T04:02:04.045Z,68.30
2018-02-14T04:04:32.162Z,68.10
2018-02-14T04:07:00.312Z,68.20
2018-02-14T04:09:28.460Z,67.90
2018-02-14T04:11:56.570Z,68.10
2018-02-14T04:14:24.741Z,68.00
2018-02-14T04:16:52.876Z,68.00
2018-02-14T04:19:21.051Z,68.30
2018-02-14T04:21:49.940Z,68.10
2018-02-14T04:24:18.142Z,68.10
2018-02-14T04:26:46.284Z,67.70
2018-02-14T04:29:14.460Z,67.70
2018-02-14T04:31:42.594Z,67.80
2018-02-14T04:34:10.726Z,67.80
2018-02-14T04:36:38.894Z,67.60
2018-02-14T04:39:07.154Z,67.30
2018-02-14T04:41:35.261Z,67.20
2018-02-14T04:44:03.404Z,67.40
2018-02-14T04:46:31.531Z,67.10
2018-02-14T04:48:59.684Z,67.10
2018-02-14T04:51:27.801Z,67.30
2018-02-14T04:53:55.954Z,67.20
2018-02-14T04:56:24.088Z,67.40
2018-02-14T04:58:52.218Z,67.50
2018-02-14T05:01:20.362Z,67.30
2018-02-14T05:03:48.485Z,67.50
2018-02-14T05:06:16.956Z,67.50
2018-02-14T05:08:45.077Z,67.50
2018-02-14T05:11:13.229Z,67.70
2018-02-14T05:13:41.355Z,67.90
2018-02-14T05:16:09.475Z,68.00
2018-02-14T05:18:37.618Z,68.00
2018-02-14T05:21:05.770Z,68.20
2018-02-14T05:23:33.900Z,67.80
2018-02-14T05:26:02.068Z,67.70
2018-02-14T05:28:30.212Z,67.30
2018-02-14T05:30:58.385Z,67.10
2018-02-14T05:33:26.489Z,67.10
2018-02-14T05:35:54.728Z,67.10
2018-02-14T05:38:23.757Z,66.90
2018-02-14T05:40:51.906Z,66.40
2018-02-14T05:43:20.071Z,66.00
2018-02-14T05:45:48.231Z,65.80
2018-02-14T05:48:16.350Z,66.50
2018-02-14T05:50:45.246Z,66.40
2018-02-14T05:53:14.208Z,66.60
2018-02-14T05:55:42.301Z,66.60
2018-02-14T05:58:10.754Z,66.20
2018-02-14T06:00:38.913Z,66.30
2018-02-14T06:03:07.822Z,65.70
2018-02-14T06:05:35.955Z,65.70
2018-02-14T06:08:04.863Z,65.70
2018-02-14T06:10:33.022Z,65.70
2018-02-14T06:13:01.922Z,65.90
2018-02-14T06:15:30.050Z,65.80
2018-02-14T06:17:58.188Z,66.00
2018-02-14T06:20:26.859Z,66.10
2018-02-14T06:22:55.006Z,65.90
2018-02-14T06:25:24.023Z,66.20
2018-02-14T06:27:52.936Z,66.20
2018-02-14T06:30:21.084Z,66.20
2018-02-14T06:32:49.977Z,66.20
2018-02-14T06:35:18.181Z,66.10
2018-02-14T06:37:46.349Z,66.00
2018-02-14T06:40:14.490Z,66.00
2018-02-14T06:42:42.628Z,66.20
2018-02-14T06:45:10.750Z,66.00
2018-02-14T06:47:38.883Z,65.80
2018-02-14T06:50:07.029Z,66.00
2018-02-14T06:52:35.148Z,65.80
2018-02-14T06:55:03.607Z,65.60
2018-02-14T06:57:32.539Z,66.30
2018-02-14T07:00:01.542Z,66.40
2018-02-14T07:02:30.422Z,66.20
2018-02-14T07:04:59.314Z,66.00
2018-02-14T07:07:27.457Z,65.90
2018-02-14T07:09:55.606Z,66.20
2018-02-14T07:12:24.534Z,65.60
2018-02-14T07:14:52.660Z,65.60
2018-02-14T07:17:20.790Z,65.90
2018-02-14T07:19:49.688Z,66.40
2018-02-14T07:22:18.606Z,66.60
2018-02-14T07:24:46.741Z,66.60
2018-02-14T07:27:15.769Z,67.20
2018-02-14T07:29:43.940Z,67.30
2018-02-14T07:32:12.830Z,67.30
2018-02-14T07:34:40.960Z,67.20
2018-02-14T07:37:09.894Z,68.80
2018-02-14T07:39:38.816Z,68.90
2018-02-14T07:42:06.959Z,68.90
2018-02-14T07:44:35.091Z,68.50
2018-02-14T07:47:03.990Z,69.70
2018-02-14T07:49:32.296Z,69.70
2018-02-14T07:52:01.294Z,69.70
2018-02-14T07:54:29.417Z,69.80
2018-02-14T07:56:57.633Z,70.10
2018-02-14T07:59:26.503Z,70.70
2018-02-14T08:01:54.665Z,70.70
2018-02-14T08:04:23.558Z,70.40
2018-02-14T08:06:52.485Z,70.20
2018-02-14T08:09:20.752Z,70.20
2018-02-14T08:11:49.645Z,69.70
2018-02-14T08:14:18.028Z,69.60
2018-02-14T08:16:46.137Z,69.50
2018-02-14T08:19:14.299Z,69.20
2018-02-14T08:21:42.444Z,68.70
2018-02-14T08:24:10.590Z,68.70
2018-02-14T08:26:38.737Z,69.00
2018-02-14T08:29:06.975Z,69.00
2018-02-14T08:31:35.126Z,68.40
2018-02-14T08:34:03.237Z,68.60
2018-02-14T08:36:31.380Z,68.80
2018-02-14T08:38:59.546Z,69.00
2018-02-14T08:41:27.647Z,68.90
2018-02-14T08:43:56.536Z,69.00
2018-02-14T08:46:24.654Z,69.20
2018-02-14T08:48:52.795Z,68.80
2018-02-14T08:51:20.957Z,68.80
2018-02-14T08:53:49.087Z,68.90
2018-02-14T08:56:17.204Z,68.90
2018-02-14T08:58:45.385Z,69.10
2018-02-14T09:01:13.556Z,68.80
2018-02-14T09:03:41.689Z,68.70
2018-02-14T09:06:09.815Z,68.40
2018-02-14T09:08:38.035Z,68.20
2018-02-14T09:11:06.317Z,68.60
2018-02-14T09:16:02.683Z,68.90
2018-02-14T09:18:30.844Z,68.40
2018-02-14T09:20:58.979Z,68.40
2018-02-14T09:23:27.124Z,69.00
2018-02-14T09:25:55.255Z,69.40
2018-02-14T09:28:23.404Z,69.50
2018-02-14T09:30:51.592Z,69.40
2018-02-14T09:33:19.705Z,69.60
2018-02-14T09:35:47.851Z,69.40
2018-02-14T09:38:16.004Z,69.00
2018-02-14T09:40:44.155Z,69.30
2018-02-14T09:43:13.065Z,69.20
2018-02-14T09:45:41.241Z,69.20
2018-02-14T09:48:09.390Z,68.20
2018-02-14T09:50:38.336Z,67.80
2018-02-14T09:53:06.477Z,67.80
2018-02-14T09:55:34.652Z,68.20
2018-02-14T09:58:03.568Z,67.80
2018-02-14T10:00:31.713Z,67.90
2018-02-14T10:02:59.845Z,67.20
2018-02-14T10:05:28.747Z,64.70
2018-02-14T10:07:57.665Z,64.90
2018-02-14T10:10:25.847Z,64.80
2018-02-14T10:12:53.958Z,65.30
2018-02-14T10:15:22.094Z,65.70
2018-02-14T10:17:50.221Z,65.20
2018-02-14T10:20:19.144Z,62.50
2018-02-14T10:22:47.274Z,62.50
2018-02-14T10:25:15.493Z,62.20
2018-02-14T10:27:44.403Z,58.80
2018-02-14T10:30:12.532Z,58.70
2018-02-14T10:32:41.433Z,60.10
2018-02-14T10:35:09.585Z,60.10
2018-02-14T10:37:38.511Z,58.40
2018-02-14T10:40:06.614Z,58.40
2018-02-14T10:42:34.771Z,57.60
2018-02-14T10:45:02.903Z,56.30
2018-02-14T10:47:31.790Z,56.70
2018-02-14T10:50:00.713Z,56.70
2018-02-14T10:52:28.818Z,56.70
2018-02-14T10:54:56.931Z,56.00
2018-02-14T10:57:25.043Z,56.00
2018-02-14T10:59:53.295Z,56.00
2018-02-14T11:02:22.189Z,52.40
2018-02-14T11:04:55.964Z,52.40
2018-02-14T11:07:24.890Z,52.90
2018-02-14T11:09:53.039Z,52.80
2018-02-14T11:12:21.912Z,51.70
2018-02-14T11:14:50.833Z,48.00
2018-02-14T11:17:18.944Z,47.90
2018-02-14T11:19:47.063Z,49.30
2018-02-14T11:22:15.189Z,46.20
2018-02-14T11:24:43.425Z,42.90
2018-02-14T11:27:12.136Z,41.30
2018-02-14T11:29:40.279Z,42.70
2018-02-14T11:32:08.416Z,40.90
2018-02-14T11:34:37.341Z,38.00
2018-02-14T11:37:06.231Z,39.60
2018-02-14T11:39:34.338Z,39.50
2018-02-14T11:42:02.577Z,38.10
2018-02-14T11:44:30.758Z,35.90
2018-02-14T11:46:58.884Z,37.30
2018-02-14T11:49:27.805Z,40.30
2018-02-14T11:51:55.909Z,40.20
2018-02-14T11:54:24.040Z,39.70
2018-02-14T11:56:52.176Z,38.90
2018-02-14T11:59:20.349Z,38.90
2018-02-14T12:01:48.494Z,37.90
2018-02-14T12:04:16.773Z,34.20
2018-02-14T12:06:44.890Z,35.50
2018-02-14T12:09:13.921Z,36.20
2018-02-14T12:11:42.099Z,36.10
2018-02-14T12:14:10.268Z,36.20
2018-02-14T12:16:38.408Z,33.90
2018-02-14T12:19:07.429Z,32.40
2018-02-14T12:21:35.562Z,32.30
2018-02-14T12:24:04.478Z,32.00
2018-02-14T12:26:32.637Z,31.90
2018-02-14T12:29:01.656Z,29.80
2018-02-14T12:31:29.805Z,29.80
2018-02-14T12:33:57.954Z,29.60
2018-02-14T12:36:26.173Z,28.50
2018-02-14T12:38:54.357Z,27.60
2018-02-14T12:41:22.480Z,27.80
2018-02-14T12:43:51.362Z,29.70
2018-02-14T12:46:19.560Z,29.00
2018-02-14T12:48:47.703Z,27.80
2018-02-14T12:51:15.870Z,27.20
2018-02-14T12:53:44.884Z,27.80
2018-02-14T12:56:13.799Z,27.90
2018-02-14T12:58:41.936Z,27.90
2018-02-14T13:01:10.952Z,27.70
2018-02-14T13:03:39.887Z,28.40
2018-02-14T13:06:08.016Z,28.40
2018-02-14T13:08:36.937Z,28.70
2018-02-14T13:11:05.058Z,28.70
2018-02-14T13:13:33.186Z,28.20
2018-02-14T13:16:01.345Z,29.00
2018-02-14T13:18:30.228Z,32.80
2018-02-14T13:20:58.410Z,32.80
2018-02-14T13:23:26.540Z,34.30
2018-02-14T13:25:54.686Z,32.10
2018-02-14T13:28:22.822Z,32.90
2018-02-14T13:30:50.933Z,31.40
2018-02-14T13:33:19.171Z,30.80
2018-02-14T13:35:47.345Z,29.70
2018-02-14T13:38:15.517Z,28.80
2018-02-14T13:40:43.628Z,29.50
2018-02-14T13:43:11.809Z,28.80
2018-02-14T13:45:40.035Z,28.20
2018-02-14T13:48:08.648Z,27.70
2018-02-14T13:50:37.567Z,27.40
2018-02-14T13:53:05.707Z,27.40
2018-02-14T13:55:33.852Z,26.90
2018-02-14T13:58:02.253Z,26.40
2018-02-14T14:00:30.409Z,27.10
2018-02-14T14:02:58.544Z,27.10
2018-02-14T14:05:27.460Z,26.60
2018-02-14T14:07:55.578Z,26.60
2018-02-14T14:10:23.738Z,25.40
2018-02-14T14:12:52.623Z,28.00
2018-02-14T14:15:20.882Z,28.10
2018-02-14T14:17:49.065Z,29.20
2018-02-14T14:20:17.177Z,29.80
2018-02-14T14:22:46.216Z,32.50
2018-02-14T14:25:15.102Z,32.70
2018-02-14T14:27:43.266Z,32.70
2018-02-14T14:30:12.138Z,33.80
2018-02-14T14:32:41.062Z,35.20
2018-02-14T14:35:09.234Z,35.10
2018-02-14T14:37:37.358Z,35.60
2018-02-14T14:40:05.579Z,36.40
2018-02-14T14:42:33.693Z,38.10
2018-02-14T14:45:01.858Z,38.20
2018-02-14T14:47:30.060Z,38.00
2018-02-14T14:49:58.208Z,38.80
2018-02-14T14:52:26.388Z,40.10
2018-02-14T14:54:54.561Z,40.50
2018-02-14T14:57:22.696Z,40.30
2018-02-14T14:59:50.829Z,41.00
2018-02-14T15:02:19.982Z,38.90
2018-02-14T15:04:48.151Z,38.90
2018-02-14T15:07:16.300Z,40.00
2018-02-14T15:09:44.455Z,40.90
2018-02-14T15:12:13.366Z,42.70
2018-02-14T15:14:41.530Z,42.80
2018-02-14T15:17:10.414Z,43.40
2018-02-14T15:19:38.586Z,43.40
2018-02-14T15:22:08.524Z,44.20
2018-02-14T15:24:36.654Z,44.20
2018-02-14T15:27:05.685Z,43.50
2018-02-14T15:29:33.818Z,43.50
2018-02-14T15:32:02.771Z,43.80
2018-02-14T15:34:30.914Z,43.80
2018-02-14T15:36:59.029Z,43.00
2018-02-14T15:39:27.214Z,43.90
2018-02-14T15:41:55.374Z,45.50
2018-02-14T15:44:23.500Z,46.60
2018-02-14T15:46:51.641Z,46.90
2018-02-14T15:49:20.546Z,46.90
2018-02-14T15:51:49.432Z,47.60
2018-02-14T15:54:17.627Z,47.50
2018-02-14T15:56:46.366Z,49.00
2018-02-14T15:59:14.692Z,49.60
2018-02-14T16:01:42.818Z,50.40
2018-02-14T16:04:10.967Z,51.40
2018-02-14T16:06:39.127Z,51.80
2018-02-14T16:09:07.258Z,51.70
2018-02-14T16:11:35.410Z,52.50
2018-02-14T16:14:03.554Z,53.50
2018-02-14T16:16:31.715Z,53.60
2018-02-14T16:18:59.943Z,53.30
2018-02-14T16:21:28.065Z,54.10
2018-02-14T16:23:56.318Z,54.50
2018-02-14T16:26:25.225Z,56.00
2018-02-14T16:28:53.451Z,55.90
2018-02-14T16:31:22.353Z,55.90
2018-02-14T16:33:51.240Z,56.50
2018-02-14T16:36:20.152Z,56.60
2018-02-14T16:38:48.298Z,56.50
2018-02-14T16:41:16.451Z,57.00
2018-02-14T16:43:44.675Z,57.20
2018-02-14T16:46:12.835Z,58.50
2018-02-14T16:48:40.993Z,58.10
2018-02-14T16:51:09.109Z,58.80
2018-02-14T16:53:37.334Z,59.20
2018-02-14T16:56:05.539Z,59.40
2018-02-14T16:58:34.476Z,59.90
2018-02-14T17:01:02.622Z,59.90
2018-02-14T17:03:30.880Z,59.60
2018-02-14T17:05:58.979Z,60.30
2018-02-14T17:08:27.151Z,60.30
2018-02-14T17:10:55.370Z,60.80
2018-02-14T17:13:23.457Z,60.80
2018-02-14T17:15:51.644Z,61.40
2018-02-14T17:18:19.766Z,61.50
2018-02-14T17:20:47.996Z,61.70
2018-02-14T17:23:16.167Z,61.70
2018-02-14T17:25:44.339Z,61.90
2018-02-14T17:28:12.487Z,62.40
2018-02-14T17:30:40.634Z,63.00
2018-02-14T17:33:08.867Z,63.00
2018-02-14T17:35:37.026Z,62.80
2018-02-14T17:38:05.172Z,62.70
2018-02-14T17:40:33.379Z,63.00
2018-02-14T17:43:01.483Z,63.20
2018-02-14T17:45:29.714Z,63.50
2018-02-14T17:47:57.891Z,63.90
2018-02-14T17:50:26.000Z,63.80
2018-02-14T17:52:54.237Z,63.90
2018-02-14T17:55:23.153Z,63.60
2018-02-14T17:57:51.276Z,63.70
2018-02-14T18:00:20.165Z,63.20
2018-02-14T18:02:48.326Z,63.20
2018-02-14T18:05:16.452Z,63.30
2018-02-14T18:07:44.612Z,63.30
2018-02-14T18:10:12.728Z,63.40
2018-02-14T18:12:40.953Z,63.40
2018-02-14T18:15:09.070Z,63.40
2018-02-14T18:17:37.232Z,63.50
2018-02-14T18:20:05.471Z,63.40
2018-02-14T18:22:33.589Z,63.30
2018-02-14T18:25:01.730Z,63.30
2018-02-14T18:27:29.910Z,63.50
2018-02-14T18:29:58.062Z,63.10
2018-02-14T18:32:26.205Z,63.90
2018-02-14T18:34:55.153Z,63.90
2018-02-14T18:37:23.294Z,63.80
2018-02-14T18:39:52.160Z,63.60
2018-02-14T18:42:20.313Z,63.60
2018-02-14T18:44:49.206Z,64.10
2018-02-14T18:47:18.115Z,63.30
2018-02-14T18:49:47.036Z,63.30
2018-02-14T18:52:15.212Z,63.30
2018-02-14T18:54:43.363Z,63.40
2018-02-14T18:57:11.536Z,63.80
2018-02-14T18:59:39.691Z,63.40
2018-02-14T19:02:08.715Z,63.60
2018-02-14T19:04:36.851Z,63.50
2018-02-14T19:07:05.886Z,64.00
2018-02-14T19:09:34.060Z,64.00
2018-02-14T19:12:02.215Z,63.90
2018-02-14T19:14:30.360Z,63.80
2018-02-14T19:16:58.495Z,64.00
2018-02-14T19:19:26.744Z,64.00
2018-02-14T19:21:54.880Z,64.20
2018-02-14T19:24:23.773Z,63.90
2018-02-14T19:26:52.738Z,64.00
2018-02-14T19:29:20.874Z,64.00
2018-02-14T19:31:49.045Z,64.00
2018-02-14T19:34:17.215Z,64.30
2018-02-14T19:36:46.100Z,64.70
2018-02-14T19:39:14.303Z,64.70
2018-02-14T19:41:42.447Z,65.00
2018-02-14T19:44:10.740Z,65.10
2018-02-14T19:46:38.901Z,65.20
2018-02-14T19:49:07.046Z,65.10
2018-02-14T19:51:35.233Z,65.10
2018-02-14T19:54:04.163Z,65.30
2018-02-14T19:56:32.360Z,65.30
2018-02-14T19:59:00.539Z,65.30
2018-02-14T20:01:28.688Z,65.20
2018-02-14T20:03:56.929Z,66.20
2018-02-14T20:06:25.876Z,65.90
2018-02-14T20:08:54.082Z,65.90
2018-02-14T20:11:22.282Z,65.90
2018-02-14T20:13:50.422Z,65.80
2018-02-14T20:16:19.320Z,66.20
2018-02-14T20:18:48.333Z,66.30
2018-02-14T20:21:16.474Z,66.30
2018-02-14T20:23:45.407Z,66.00
2018-02-14T20:26:13.521Z,66.00
2018-02-14T20:28:41.738Z,66.30
2018-02-14T20:31:09.949Z,66.30
2018-02-14T20:33:38.114Z,66.30
2018-02-14T20:36:06.274Z,66.60
2018-02-14T20:38:34.459Z,66.60
2018-02-14T20:41:02.610Z,66.40
2018-02-14T20:43:30.779Z,66.60
2018-02-14T20:45:59.688Z,66.60
2018-02-14T20:48:27.932Z,66.60
2018-02-14T20:50:56.080Z,66.60
2018-02-14T20:53:24.284Z,66.90
2018-02-14T20:55:52.465Z,67.00
2018-02-14T20:58:20.638Z,67.00
2018-02-14T21:00:48.779Z,66.90
2018-02-14T21:03:16.989Z,66.90
2018-02-14T21:05:45.255Z,67.40
2018-02-14T21:08:13.378Z,67.00
2018-02-14T21:10:42.335Z,67.10
2018-02-14T21:13:10.490Z,67.20
2018-02-14T21:15:38.656Z,67.60
2018-02-14T21:18:06.821Z,67.80
2018-02-14T21:20:34.984Z,68.30
2018-02-14T21:23:03.133Z,68.30
2018-02-14T21:25:31.360Z,68.20
2018-02-14T21:27:59.548Z,68.00
2018-02-14T21:30:27.842Z,68.00
2018-02-14T21:32:56.004Z,67.80
2018-02-14T21:35:24.166Z,67.80
2018-02-14T21:37:52.348Z,67.50
2018-02-14T21:40:20.527Z,67.50
2018-02-14T21:42:48.914Z,67.40
2018-02-14T21:45:17.142Z,67.50
2018-02-14T21:47:45.323Z,67.40
2018-02-14T21:50:13.510Z,67.30
2018-02-14T21:52:41.786Z,67.10
2018-02-14T21:55:10.159Z,67.10
2018-02-14T21:57:38.284Z,66.90
2018-02-14T22:00:06.520Z,66.80
2018-02-14T22:02:34.685Z,66.60
2018-02-14T22:05:02.850Z,66.90
2018-02-14T22:07:31.190Z,66.90
2018-02-14T22:10:00.284Z,67.10
2018-02-14T22:12:28.491Z,67.10
2018-02-14T22:14:56.671Z,67.00
2018-02-14T22:17:25.631Z,67.10
2018-02-14T22:19:53.777Z,67.20
2018-02-14T22:22:21.916Z,67.10
2018-02-14T22:24:50.774Z,67.00
2018-02-14T22:27:18.929Z,66.60
2018-02-14T22:29:47.110Z,66.80
2018-02-14T22:32:15.233Z,67.30
2018-02-14T22:34:44.174Z,67.90
2018-02-14T22:37:12.307Z,67.90
2018-02-14T22:39:41.451Z,68.10
2018-02-14T22:42:09.575Z,68.20
2018-02-14T22:44:38.506Z,68.00
2018-02-14T22:47:06.656Z,68.10
2018-02-14T22:49:34.814Z,67.90
2018-02-14T22:52:02.997Z,67.60
2018-02-14T22:54:31.152Z,67.50
2018-02-14T22:57:00.171Z,67.20
2018-02-14T22:59:28.294Z,67.20
2018-02-14T23:01:56.417Z,67.00
2018-02-14T23:04:24.556Z,67.10
2018-02-14T23:06:53.479Z,67.00
2018-02-14T23:09:21.622Z,67.00
2018-02-14T23:11:50.541Z,67.00
2018-02-14T23:14:18.723Z,67.00
2018-02-14T23:16:46.885Z,67.00
2018-02-14T23:19:15.060Z,67.20
2018-02-14T23:21:43.184Z,67.30
2018-02-14T23:24:11.349Z,67.20
2018-02-14T23:26:39.493Z,67.20
2018-02-14T23:29:07.626Z,67.00
2018-02-14T23:31:35.778Z,66.80
2018-02-14T23:34:04.919Z,67.40
2018-02-14T23:36:33.792Z,67.10
2018-02-14T23:39:01.996Z,67.10
2018-02-14T23:41:30.256Z,67.30
2018-02-14T23:43:59.164Z,67.40
2018-02-14T23:46:27.323Z,67.40
2018-02-14T23:48:55.491Z,67.30
2018-02-14T23:51:23.612Z,67.20
2018-02-14T23:53:51.746Z,67.10
2018-02-14T23:56:19.892Z,67.20
2018-02-14T23:58:48.068Z,67.20
